createdAt,value
2022-08-26T00:00:25.041Z,83.43
2022-08-26T00:01:29.652Z,83.23
2022-08-26T00:02:26.051Z,82.82
2022-08-26T00:03:25.025Z,82.62
2022-08-26T00:04:25.485Z,82.82
2022-08-26T00:05:24.987Z,83.43
2022-08-26T00:06:24.982Z,83.63
2022-08-26T00:07:24.994Z,83.33
2022-08-26T00:08:24.954Z,83.23
2022-08-26T00:09:25.091Z,83.53
2022-08-26T00:10:25.898Z,83.43
2022-08-26T00:11:26.957Z,83.03
2022-08-26T00:12:31.505Z,82.62
2022-08-26T00:13:25.915Z,82.62
2022-08-26T00:14:28.425Z,83.43
2022-08-26T00:15:25.892Z,83.23
2022-08-26T00:16:24.997Z,83.23
2022-08-26T00:17:24.857Z,83.33
2022-08-26T00:18:24.843Z,83.63
2022-08-26T00:19:24.860Z,83.63
2022-08-26T00:20:24.834Z,84.18
2022-08-26T00:21:24.813Z,84.18
2022-08-26T00:22:24.800Z,84.99
2022-08-26T00:23:24.794Z,84.58
2022-08-26T00:24:24.784Z,84.18
2022-08-26T00:25:24.782Z,83.98
2022-08-26T00:26:24.769Z,83.57
2022-08-26T00:27:24.766Z,83.77
2022-08-26T00:28:24.739Z,83.67
2022-08-26T00:29:24.731Z,83.67
2022-08-26T00:30:24.721Z,83.67
2022-08-26T00:31:24.769Z,83.77
2022-08-26T00:32:24.691Z,84.38
2022-08-26T00:33:24.697Z,84.99
2022-08-26T00:34:24.671Z,84.58
2022-08-26T00:35:24.665Z,84.38
2022-08-26T00:36:24.680Z,84.18
2022-08-26T00:37:24.668Z,84.28
2022-08-26T00:38:24.736Z,85.09
2022-08-26T00:39:24.629Z,84.78
2022-08-26T00:40:24.719Z,84.99
2022-08-26T00:41:24.630Z,84.48
2022-08-26T00:42:24.589Z,84.99
2022-08-26T00:43:24.597Z,85.09
2022-08-26T00:44:24.574Z,85.09
2022-08-26T00:45:24.607Z,84.99
2022-08-26T00:46:24.556Z,84.89
2022-08-26T00:47:24.553Z,84.78
2022-08-26T00:48:24.519Z,84.99
2022-08-26T00:49:24.545Z,84.48
2022-08-26T00:50:24.516Z,84.89
2022-08-26T00:51:24.493Z,84.08
2022-08-26T00:52:25.471Z,84.18
2022-08-26T00:53:27.870Z,84.08
2022-08-26T00:54:24.453Z,84.38
2022-08-26T00:55:24.547Z,84.58
2022-08-26T00:56:24.440Z,84.78
2022-08-26T00:57:24.420Z,84.69
2022-08-26T00:58:24.411Z,84.99
2022-08-26T00:59:24.399Z,84.69
2022-08-26T01:00:24.404Z,85.09
2022-08-26T01:01:24.453Z,85.19
2022-08-26T01:02:24.463Z,85.09
2022-08-26T01:03:24.366Z,84.58
2022-08-26T01:04:24.353Z,84.72
2022-08-26T01:05:24.332Z,84.89
2022-08-26T01:06:24.318Z,84.89
2022-08-26T01:07:24.345Z,84.48
2022-08-26T01:08:24.428Z,84.89
2022-08-26T01:09:24.303Z,84.78
2022-08-26T01:10:24.282Z,84.89
2022-08-26T01:11:24.270Z,85.09
2022-08-26T01:12:24.257Z,84.58
2022-08-26T01:13:24.276Z,84.63
2022-08-26T01:14:24.234Z,84.69
2022-08-26T01:15:24.228Z,84.99
2022-08-26T01:16:24.250Z,85.09
2022-08-26T01:17:24.201Z,84.99
2022-08-26T01:18:24.197Z,84.89
2022-08-26T01:19:24.188Z,84.89
2022-08-26T01:20:24.166Z,85.24
2022-08-26T01:21:24.170Z,85.09
2022-08-26T01:22:26.716Z,85.44
2022-08-26T01:23:24.135Z,85.44
2022-08-26T01:24:24.121Z,85.84
2022-08-26T01:25:24.135Z,85.53
2022-08-26T01:26:24.105Z,85.44
2022-08-26T01:27:24.092Z,84.93
2022-08-26T01:28:24.084Z,84.93
2022-08-26T01:29:24.069Z,85.64
2022-08-26T01:30:24.066Z,85.44
2022-08-26T01:31:24.119Z,86.05
2022-08-26T01:32:24.036Z,85.74
2022-08-26T01:33:24.033Z,85.33
2022-08-26T01:34:24.030Z,85.64
2022-08-26T01:35:24.004Z,85.53
2022-08-26T01:36:23.991Z,86.15
2022-08-26T01:37:24.012Z,85.98
2022-08-26T01:38:23.980Z,86.90
2022-08-26T01:39:23.967Z,86.80
2022-08-26T01:40:24.137Z,86.59
2022-08-26T01:41:27.583Z,86.45
2022-08-26T01:42:24.921Z,86.49
2022-08-26T01:43:23.932Z,85.94
2022-08-26T01:44:23.904Z,85.84
2022-08-26T01:45:23.897Z,85.94
2022-08-26T01:46:23.905Z,85.53
2022-08-26T01:47:23.870Z,85.94
2022-08-26T01:48:23.873Z,85.44
2022-08-26T01:49:23.903Z,85.33
2022-08-26T01:50:28.057Z,85.13
2022-08-26T01:51:24.841Z,84.93
2022-08-26T01:52:23.816Z,84.72
2022-08-26T01:53:23.821Z,84.93
2022-08-26T01:54:23.809Z,86.19
2022-08-26T01:55:33.222Z,86.80
2022-08-26T01:56:24.780Z,86.83
2022-08-26T01:57:24.761Z,87.10
2022-08-26T01:58:23.762Z,87.04
2022-08-26T01:59:23.739Z,87.45
2022-08-26T02:00:23.742Z,87.14
2022-08-26T02:01:23.818Z,86.08
2022-08-26T02:02:24.704Z,86.22
2022-08-26T02:03:23.697Z,86.53
2022-08-26T02:04:23.768Z,87.14
2022-08-26T02:05:23.684Z,87.34
2022-08-26T02:06:23.665Z,87.34
2022-08-26T02:07:23.689Z,86.83
2022-08-26T02:08:25.295Z,86.53
2022-08-26T02:09:23.628Z,86.63
2022-08-26T02:10:23.623Z,86.74
2022-08-26T02:11:23.675Z,87.04
2022-08-26T02:12:23.595Z,86.77
2022-08-26T02:13:23.603Z,87.29
2022-08-26T02:14:23.584Z,87.08
2022-08-26T02:15:23.563Z,87.49
2022-08-26T02:16:23.607Z,87.24
2022-08-26T02:17:23.543Z,86.74
2022-08-26T02:18:23.537Z,87.24
2022-08-26T02:19:23.549Z,86.53
2022-08-26T02:20:23.547Z,86.94
2022-08-26T02:21:24.963Z,87.18
2022-08-26T02:22:24.677Z,87.18
2022-08-26T02:23:24.410Z,86.94
2022-08-26T02:24:23.511Z,87.04
2022-08-26T02:25:23.458Z,87.14
2022-08-26T02:26:23.485Z,85.72
2022-08-26T02:27:23.432Z,86.53
2022-08-26T02:28:26.605Z,87.24
2022-08-26T02:29:23.424Z,86.68
2022-08-26T02:30:23.402Z,86.98
2022-08-26T02:31:23.412Z,86.53
2022-08-26T02:32:23.408Z,85.78
2022-08-26T02:33:23.416Z,85.68
2022-08-26T02:34:23.353Z,86.19
2022-08-26T02:35:23.367Z,86.22
2022-08-26T02:36:23.332Z,86.63
2022-08-26T02:37:23.326Z,86.74
2022-08-26T02:38:23.336Z,86.74
2022-08-26T02:39:23.319Z,86.63
2022-08-26T02:40:23.299Z,86.53
2022-08-26T02:41:23.283Z,86.02
2022-08-26T02:42:23.285Z,85.88
2022-08-26T02:43:31.376Z,85.38
2022-08-26T02:44:24.302Z,85.52
2022-08-26T02:45:23.799Z,86.08
2022-08-26T02:46:29.839Z,85.68
2022-08-26T02:47:24.889Z,86.43
2022-08-26T02:48:23.199Z,85.82
2022-08-26T02:49:23.191Z,85.86
2022-08-26T02:50:23.204Z,87.24
2022-08-26T02:51:23.177Z,86.94
2022-08-26T02:52:23.173Z,86.63
2022-08-26T02:53:25.415Z,86.53
2022-08-26T02:54:23.138Z,86.57
2022-08-26T02:55:24.684Z,85.82
2022-08-26T02:56:23.167Z,86.77
2022-08-26T02:57:23.104Z,86.63
2022-08-26T02:58:23.109Z,87.14
2022-08-26T02:59:24.401Z,86.83
2022-08-26T03:00:23.822Z,86.57
2022-08-26T03:01:23.136Z,87.08
2022-08-26T03:02:23.174Z,87.59
2022-08-26T03:03:23.714Z,87.08
2022-08-26T03:04:23.043Z,87.29
2022-08-26T03:05:24.052Z,87.59
2022-08-26T03:06:23.008Z,87.49
2022-08-26T03:07:22.992Z,86.94
2022-08-26T03:08:23.013Z,87.04
2022-08-26T03:09:22.976Z,85.78
2022-08-26T03:10:22.971Z,85.82
2022-08-26T03:11:22.957Z,85.72
2022-08-26T03:12:22.938Z,86.43
2022-08-26T03:13:22.924Z,86.02
2022-08-26T03:14:22.935Z,86.22
2022-08-26T03:15:22.907Z,86.43
2022-08-26T03:16:22.961Z,86.53
2022-08-26T03:17:22.985Z,86.53
2022-08-26T03:18:22.872Z,86.43
2022-08-26T03:19:22.876Z,86.02
2022-08-26T03:20:22.880Z,86.22
2022-08-26T03:21:22.859Z,86.22
2022-08-26T03:22:22.831Z,86.19
2022-08-26T03:23:22.818Z,85.52
2022-08-26T03:24:22.813Z,86.08
2022-08-26T03:25:22.805Z,86.08
2022-08-26T03:26:22.789Z,86.08
2022-08-26T03:27:22.800Z,85.68
2022-08-26T03:28:22.771Z,85.41
2022-08-26T03:29:22.750Z,86.19
2022-08-26T03:30:22.769Z,86.90
2022-08-26T03:31:24.653Z,87.45
2022-08-26T03:32:22.717Z,87.14
2022-08-26T03:33:22.735Z,87.24
2022-08-26T03:34:22.696Z,87.49
2022-08-26T03:35:22.685Z,86.57
2022-08-26T03:36:22.688Z,85.41
2022-08-26T03:37:22.663Z,85.72
2022-08-26T03:38:22.654Z,86.53
2022-08-26T03:39:22.658Z,86.77
2022-08-26T03:40:22.711Z,84.87
2022-08-26T03:41:22.617Z,85.27
2022-08-26T03:42:22.620Z,85.88
2022-08-26T03:43:22.603Z,86.02
2022-08-26T03:44:22.600Z,85.92
2022-08-26T03:45:22.590Z,86.16
2022-08-26T03:46:22.593Z,86.74
2022-08-26T03:47:22.553Z,86.33
2022-08-26T03:48:22.543Z,86.22
2022-08-26T03:49:22.544Z,87.29
2022-08-26T03:50:23.017Z,87.69
2022-08-26T03:51:22.528Z,87.29
2022-08-26T03:52:22.521Z,87.43
2022-08-26T03:53:22.598Z,87.12
2022-08-26T03:54:22.481Z,88.04
2022-08-26T03:55:23.695Z,87.63
2022-08-26T03:56:22.463Z,87.73
2022-08-26T03:57:22.463Z,87.67
2022-08-26T03:58:22.437Z,87.53
2022-08-26T03:59:22.448Z,87.73
2022-08-26T04:00:22.417Z,87.57
2022-08-26T04:01:22.434Z,87.87
2022-08-26T04:02:22.393Z,87.32
2022-08-26T04:03:22.444Z,87.67
2022-08-26T04:04:22.656Z,88.28
2022-08-26T04:05:22.372Z,87.37
2022-08-26T04:06:22.355Z,87.87
2022-08-26T04:07:22.335Z,86.86
2022-08-26T04:08:22.324Z,87.57
2022-08-26T04:09:22.318Z,86.92
2022-08-26T04:10:22.358Z,87.67
2022-08-26T04:11:23.290Z,87.98
2022-08-26T04:12:22.283Z,87.47
2022-08-26T04:13:22.270Z,87.47
2022-08-26T04:14:22.264Z,87.57
2022-08-26T04:15:22.250Z,87.57
2022-08-26T04:16:22.329Z,87.26
2022-08-26T04:17:24.901Z,87.26
2022-08-26T04:18:22.218Z,87.93
2022-08-26T04:19:22.209Z,87.87
2022-08-26T04:20:22.198Z,87.53
2022-08-26T04:21:22.185Z,87.63
2022-08-26T04:22:24.038Z,87.32
2022-08-26T04:23:22.177Z,86.82
2022-08-26T04:24:22.162Z,87.23
2022-08-26T04:25:22.141Z,87.53
2022-08-26T04:26:22.152Z,86.82
2022-08-26T04:27:22.124Z,87.23
2022-08-26T04:28:22.131Z,87.12
2022-08-26T04:29:22.116Z,87.73
2022-08-26T04:30:22.089Z,87.12
2022-08-26T04:31:22.142Z,86.92
2022-08-26T04:32:22.075Z,87.98
2022-08-26T04:33:32.431Z,87.67
2022-08-26T04:34:23.062Z,87.23
2022-08-26T04:35:25.666Z,87.84
2022-08-26T04:36:22.020Z,87.63
2022-08-26T04:37:22.006Z,87.87
2022-08-26T04:38:22.004Z,87.53
2022-08-26T04:39:21.989Z,86.92
2022-08-26T04:40:22.093Z,87.12
2022-08-26T04:41:21.996Z,86.57
2022-08-26T04:42:23.307Z,86.57
2022-08-26T04:43:21.949Z,85.96
2022-08-26T04:44:21.933Z,86.47
2022-08-26T04:45:22.610Z,86.37
2022-08-26T04:46:22.036Z,87.23
2022-08-26T04:47:21.914Z,86.82
2022-08-26T04:48:21.894Z,87.63
2022-08-26T04:49:21.877Z,87.57
2022-08-26T04:50:21.868Z,87.16
2022-08-26T04:51:21.861Z,87.67
2022-08-26T04:52:21.863Z,87.77
2022-08-26T04:53:21.864Z,87.98
2022-08-26T04:54:21.826Z,87.06
2022-08-26T04:55:21.819Z,86.41
2022-08-26T04:56:22.808Z,87.63
2022-08-26T04:57:21.795Z,87.93
2022-08-26T04:58:21.808Z,87.43
2022-08-26T04:59:21.792Z,86.82
2022-08-26T05:00:21.765Z,87.23
2022-08-26T05:01:21.776Z,86.41
2022-08-26T05:02:21.738Z,85.80
2022-08-26T05:03:21.727Z,84.84
2022-08-26T05:04:21.761Z,84.23
2022-08-26T05:05:21.710Z,85.86
2022-08-26T05:06:22.016Z,85.66
2022-08-26T05:07:21.681Z,85.55
2022-08-26T05:08:21.739Z,85.55
2022-08-26T05:09:21.664Z,85.35
2022-08-26T05:10:21.667Z,84.84
2022-08-26T05:11:22.120Z,85.35
2022-08-26T05:12:21.634Z,85.15
2022-08-26T05:13:21.638Z,84.13
2022-08-26T05:14:21.614Z,84.03
2022-08-26T05:15:21.592Z,85.31
2022-08-26T05:16:21.670Z,83.89
2022-08-26T05:17:21.569Z,83.99
2022-08-26T05:18:22.810Z,83.89
2022-08-26T05:19:21.574Z,86.22
2022-08-26T05:20:25.605Z,85.52
2022-08-26T05:21:21.532Z,86.33
2022-08-26T05:22:21.537Z,85.47
2022-08-26T05:23:21.506Z,86.33
2022-08-26T05:24:21.498Z,86.53
2022-08-26T05:25:21.515Z,86.19
2022-08-26T05:26:23.134Z,86.19
2022-08-26T05:27:21.461Z,85.17
2022-08-26T05:28:21.476Z,84.60
2022-08-26T05:29:21.448Z,85.11
2022-08-26T05:30:21.436Z,85.68
2022-08-26T05:31:21.464Z,86.22
2022-08-26T05:32:21.433Z,85.52
2022-08-26T05:33:21.398Z,86.22
2022-08-26T05:34:21.397Z,86.59
2022-08-26T05:35:21.380Z,86.90
2022-08-26T05:36:21.366Z,87.30
2022-08-26T05:37:21.382Z,88.32
2022-08-26T05:38:21.347Z,87.06
2022-08-26T05:39:21.347Z,86.65
2022-08-26T05:40:21.403Z,86.86
2022-08-26T05:41:21.467Z,86.05
2022-08-26T05:42:21.304Z,86.35
2022-08-26T05:43:21.314Z,86.61
2022-08-26T05:44:21.277Z,86.91
2022-08-26T05:45:21.267Z,86.16
2022-08-26T05:46:21.309Z,85.56
2022-08-26T05:47:21.257Z,87.08
2022-08-26T05:48:22.781Z,86.88
2022-08-26T05:49:22.514Z,87.99
2022-08-26T05:50:22.217Z,88.40
2022-08-26T05:51:25.390Z,88.49
2022-08-26T05:52:21.191Z,87.38
2022-08-26T05:53:21.178Z,87.38
2022-08-26T05:54:21.747Z,84.55
2022-08-26T05:55:21.174Z,83.94
2022-08-26T05:56:21.149Z,83.80
2022-08-26T05:57:21.136Z,82.38
2022-08-26T05:58:21.126Z,82.14
2022-08-26T05:59:24.289Z,81.15
2022-08-26T06:00:21.116Z,80.26
2022-08-26T06:01:21.486Z,77.80
2022-08-26T06:02:21.156Z,76.04
2022-08-26T06:03:21.070Z,75.24
2022-08-26T06:04:21.059Z,74.69
2022-08-26T06:05:21.048Z,75.31
2022-08-26T06:06:27.520Z,75.24
2022-08-26T06:07:22.143Z,77.29
2022-08-26T06:08:21.025Z,77.76
2022-08-26T06:09:21.011Z,76.95
2022-08-26T06:10:32.198Z,76.84
2022-08-26T06:11:21.985Z,75.06
2022-08-26T06:12:20.975Z,75.94
2022-08-26T06:13:21.027Z,77.02
2022-08-26T06:14:20.966Z,79.79
2022-08-26T06:15:20.942Z,80.22
2022-08-26T06:16:21.005Z,79.72
2022-08-26T06:17:20.923Z,77.26
2022-08-26T06:18:20.918Z,78.57
2022-08-26T06:19:20.923Z,77.80
2022-08-26T06:20:20.888Z,78.20
2022-08-26T06:21:20.872Z,79.01
2022-08-26T06:22:23.268Z,78.81
2022-08-26T06:23:20.868Z,81.23
2022-08-26T06:24:20.883Z,80.83
2022-08-26T06:25:21.854Z,81.17
2022-08-26T06:26:20.817Z,80.97
2022-08-26T06:27:20.805Z,79.75
2022-08-26T06:28:20.804Z,78.78
2022-08-26T06:29:24.451Z,78.55
2022-08-26T06:30:20.785Z,78.44
2022-08-26T06:31:20.870Z,77.39
2022-08-26T06:32:20.760Z,77.19
2022-08-26T06:33:20.755Z,77.90
2022-08-26T06:34:20.731Z,78.14
2022-08-26T06:35:20.719Z,77.73
2022-08-26T06:36:20.721Z,79.15
2022-08-26T06:37:20.721Z,79.35
2022-08-26T06:38:20.691Z,79.69
2022-08-26T06:39:20.679Z,79.29
2022-08-26T06:40:20.710Z,79.08
2022-08-26T06:41:20.669Z,79.08
2022-08-26T06:42:20.658Z,78.78
2022-08-26T06:43:20.658Z,79.19
2022-08-26T06:44:20.953Z,79.59
2022-08-26T06:45:20.648Z,80.50
2022-08-26T06:46:20.643Z,80.30
2022-08-26T06:47:20.587Z,79.90
2022-08-26T06:48:20.577Z,81.01
2022-08-26T06:49:27.147Z,81.41
2022-08-26T06:50:21.573Z,81.55
2022-08-26T06:51:20.542Z,82.06
2022-08-26T06:52:24.377Z,84.19
2022-08-26T06:53:20.538Z,85.50
2022-08-26T06:54:20.515Z,84.69
2022-08-26T06:55:20.505Z,83.58
2022-08-26T06:56:21.517Z,79.72
2022-08-26T06:57:20.490Z,79.91
2022-08-26T06:58:20.471Z,77.78
2022-08-26T06:59:20.456Z,74.12
2022-08-26T07:00:20.450Z,73.58
2022-08-26T07:01:20.532Z,73.82
2022-08-26T07:02:20.760Z,74.59
2022-08-26T07:03:20.429Z,73.14
2022-08-26T07:04:22.459Z,72.20
2022-08-26T07:05:20.391Z,71.13
2022-08-26T07:06:20.386Z,74.35
2022-08-26T07:07:21.981Z,75.46
2022-08-26T07:08:20.392Z,72.11
2022-08-26T07:09:20.528Z,75.67
2022-08-26T07:10:20.337Z,75.96
2022-08-26T07:11:20.325Z,75.60
2022-08-26T07:12:20.313Z,76.00
2022-08-26T07:13:29.939Z,73.99
2022-08-26T07:14:21.940Z,75.43
2022-08-26T07:15:20.288Z,75.70
2022-08-26T07:16:21.307Z,75.30
2022-08-26T07:17:20.398Z,75.23
2022-08-26T07:18:20.253Z,75.74
2022-08-26T07:19:29.861Z,76.18
2022-08-26T07:20:21.261Z,76.07
2022-08-26T07:21:20.219Z,76.14
2022-08-26T07:22:20.319Z,76.34
2022-08-26T07:23:20.207Z,75.93
2022-08-26T07:24:20.199Z,73.38
2022-08-26T07:25:20.183Z,72.20
2022-08-26T07:26:20.160Z,77.13
2022-08-26T07:27:20.157Z,74.32
2022-08-26T07:28:20.198Z,75.66
2022-08-26T07:29:20.160Z,73.35
2022-08-26T07:30:20.130Z,73.84
2022-08-26T07:31:20.163Z,72.17
2022-08-26T07:32:20.092Z,73.94
2022-08-26T07:33:20.233Z,69.49
2022-08-26T07:34:20.074Z,70.63
2022-08-26T07:35:20.071Z,71.90
2022-08-26T07:36:20.051Z,71.40
2022-08-26T07:37:20.043Z,73.00
2022-08-26T07:38:20.031Z,73.03
2022-08-26T07:39:20.146Z,69.29
2022-08-26T07:40:20.049Z,69.96
2022-08-26T07:41:20.094Z,69.92
2022-08-26T07:42:19.989Z,68.15
2022-08-26T07:43:19.976Z,70.16
2022-08-26T07:44:19.982Z,72.11
2022-08-26T07:45:19.970Z,72.61
2022-08-26T07:46:20.841Z,73.52
2022-08-26T07:47:25.802Z,72.11
2022-08-26T07:48:21.429Z,73.18
2022-08-26T07:49:20.043Z,68.88
2022-08-26T07:50:19.938Z,69.09
2022-08-26T07:51:19.890Z,69.18
2022-08-26T07:52:23.938Z,69.49
2022-08-26T07:53:20.880Z,67.02
2022-08-26T07:54:19.871Z,68.52
2022-08-26T07:55:19.847Z,68.82
2022-08-26T07:56:19.835Z,68.25
2022-08-26T07:57:19.826Z,68.85
2022-08-26T07:58:19.829Z,69.22
2022-08-26T07:59:19.819Z,68.08
2022-08-26T08:00:19.859Z,70.86
2022-08-26T08:01:19.858Z,71.33
2022-08-26T08:02:19.825Z,68.89
2022-08-26T08:03:19.765Z,69.62
2022-08-26T08:04:25.582Z,70.19
2022-08-26T08:05:20.774Z,71.50
2022-08-26T08:06:19.742Z,69.85
2022-08-26T08:07:19.737Z,71.26
2022-08-26T08:08:27.104Z,70.03
2022-08-26T08:09:20.697Z,70.83
2022-08-26T08:10:20.753Z,69.29
2022-08-26T08:11:19.696Z,69.73
2022-08-26T08:12:19.663Z,69.32
2022-08-26T08:13:19.665Z,68.89
2022-08-26T08:14:22.042Z,69.09
2022-08-26T08:15:19.633Z,69.86
2022-08-26T08:16:19.705Z,68.89
2022-08-26T08:17:19.615Z,69.79
2022-08-26T08:18:20.398Z,69.79
2022-08-26T08:19:19.599Z,70.96
2022-08-26T08:20:19.659Z,70.32
2022-08-26T08:21:21.684Z,68.39
2022-08-26T08:22:19.912Z,69.35
2022-08-26T08:23:19.545Z,69.99
2022-08-26T08:24:19.537Z,70.03
2022-08-26T08:25:19.540Z,70.39
2022-08-26T08:26:19.509Z,68.92
2022-08-26T08:27:23.490Z,70.06
2022-08-26T08:28:19.488Z,69.82
2022-08-26T08:29:19.500Z,69.53
2022-08-26T08:30:22.639Z,70.26
2022-08-26T08:31:38.533Z,70.19
2022-08-26T08:32:20.449Z,70.59
2022-08-26T08:33:19.488Z,69.32
2022-08-26T08:34:19.424Z,68.73
2022-08-26T08:35:19.426Z,68.86
2022-08-26T08:36:20.473Z,67.00
2022-08-26T08:37:19.390Z,66.66
2022-08-26T08:38:19.414Z,66.93
2022-08-26T08:39:19.379Z,64.64
2022-08-26T08:40:19.478Z,66.20
2022-08-26T08:41:19.348Z,63.93
2022-08-26T08:42:19.340Z,66.83
2022-08-26T08:43:19.333Z,66.70
2022-08-26T08:44:19.380Z,66.17
2022-08-26T08:45:19.310Z,64.27
2022-08-26T08:46:19.348Z,63.34
2022-08-26T08:47:19.290Z,64.41
2022-08-26T08:48:19.295Z,61.88
2022-08-26T08:49:19.263Z,61.25
2022-08-26T08:50:19.294Z,64.90
2022-08-26T08:51:19.246Z,63.09
2022-08-26T08:52:19.263Z,65.25
2022-08-26T08:53:19.224Z,66.16
2022-08-26T08:54:19.217Z,63.56
2022-08-26T08:55:19.213Z,66.19
2022-08-26T08:56:19.211Z,63.46
2022-08-26T08:57:19.221Z,63.26
2022-08-26T08:58:19.752Z,64.49
2022-08-26T08:59:19.190Z,63.09
2022-08-26T09:00:19.260Z,62.76
2022-08-26T09:01:19.217Z,65.09
2022-08-26T09:02:19.224Z,64.86
2022-08-26T09:03:19.170Z,66.86
2022-08-26T09:04:19.110Z,66.09
2022-08-26T09:05:19.098Z,63.73
2022-08-26T09:06:19.084Z,63.93
2022-08-26T09:07:19.081Z,64.43
2022-08-26T09:08:19.892Z,65.87
2022-08-26T09:09:19.085Z,63.31
2022-08-26T09:10:19.050Z,61.29
2022-08-26T09:11:19.036Z,61.05
2022-08-26T09:12:19.031Z,62.60
2022-08-26T09:13:25.394Z,62.23
2022-08-26T09:14:20.009Z,62.50
2022-08-26T09:15:18.991Z,61.68
2022-08-26T09:16:20.442Z,61.38
2022-08-26T09:17:18.978Z,61.91
2022-08-26T09:18:18.960Z,61.09
2022-08-26T09:19:19.311Z,61.22
2022-08-26T09:20:19.002Z,61.16
2022-08-26T09:21:18.938Z,62.32
2022-08-26T09:22:18.966Z,59.96
2022-08-26T09:23:19.005Z,60.86
2022-08-26T09:24:18.906Z,63.32
2022-08-26T09:25:18.904Z,61.43
2022-08-26T09:26:18.936Z,61.30
2022-08-26T09:27:18.875Z,59.64
2022-08-26T09:28:18.850Z,62.26
2022-08-26T09:30:18.897Z,60.06
2022-08-26T09:31:18.949Z,59.27
2022-08-26T09:32:18.806Z,61.03
2022-08-26T09:33:18.798Z,61.40
2022-08-26T09:34:19.047Z,60.40
2022-08-26T09:35:18.782Z,61.93
2022-08-26T09:36:18.767Z,63.25
2022-08-26T09:37:18.786Z,62.31
2022-08-26T09:38:18.786Z,62.40
2022-08-26T09:39:18.734Z,62.83
2022-08-26T09:40:18.845Z,64.37
2022-08-26T09:41:18.713Z,62.34
2022-08-26T09:42:18.700Z,63.45
2022-08-26T09:43:22.036Z,63.79
2022-08-26T09:44:18.678Z,59.91
2022-08-26T09:45:18.664Z,59.53
2022-08-26T09:46:18.870Z,62.15
2022-08-26T09:47:18.640Z,60.42
2022-08-26T09:48:18.628Z,61.47
2022-08-26T09:49:18.637Z,63.03
2022-08-26T09:50:18.608Z,64.73
2022-08-26T09:51:18.595Z,63.59
2022-08-26T09:52:18.598Z,64.59
2022-08-26T09:53:20.956Z,64.26
2022-08-26T09:54:20.708Z,63.83
2022-08-26T09:55:18.563Z,66.36
2022-08-26T09:56:18.543Z,62.91
2022-08-26T09:57:18.546Z,62.94
2022-08-26T09:58:18.515Z,64.07
2022-08-26T09:59:18.935Z,62.54
2022-08-26T10:00:18.497Z,63.77
2022-08-26T10:01:19.439Z,63.50
2022-08-26T10:02:18.470Z,63.07
2022-08-26T10:03:18.478Z,60.33
2022-08-26T10:04:18.606Z,62.83
2022-08-26T10:05:18.448Z,63.03
2022-08-26T10:06:20.959Z,60.83
2022-08-26T10:07:18.436Z,61.24
2022-08-26T10:08:18.410Z,63.60
2022-08-26T10:09:18.397Z,63.04
2022-08-26T10:10:18.401Z,60.65
2022-08-26T10:11:18.375Z,62.24
2022-08-26T10:12:18.374Z,61.44
2022-08-26T10:13:18.369Z,59.58
2022-08-26T10:14:20.156Z,61.57
2022-08-26T10:15:18.333Z,58.55
2022-08-26T10:16:18.423Z,58.95
2022-08-26T10:17:18.309Z,60.75
2022-08-26T10:18:18.304Z,61.39
2022-08-26T10:19:18.304Z,60.99
2022-08-26T10:20:23.269Z,60.72
2022-08-26T10:21:19.312Z,61.11
2022-08-26T10:22:18.260Z,59.35
2022-08-26T10:23:18.243Z,61.22
2022-08-26T10:24:18.231Z,60.39
2022-08-26T10:25:18.219Z,60.96
2022-08-26T10:26:18.228Z,57.82
2022-08-26T10:27:18.209Z,58.31
2022-08-26T10:28:18.207Z,60.03
2022-08-26T10:29:18.189Z,60.77
2022-08-26T10:30:18.168Z,56.17
2022-08-26T10:31:18.208Z,55.60
2022-08-26T10:32:18.226Z,56.89
2022-08-26T10:33:18.333Z,59.68
2022-08-26T10:34:18.125Z,59.38
2022-08-26T10:35:18.115Z,57.22
2022-08-26T10:36:20.296Z,58.22
2022-08-26T10:37:18.101Z,58.65
2022-08-26T10:38:18.095Z,56.57
2022-08-26T10:39:18.063Z,56.49
2022-08-26T10:40:18.107Z,54.16
2022-08-26T10:41:18.216Z,56.68
2022-08-26T10:42:18.042Z,57.17
2022-08-26T10:43:18.070Z,56.77
2022-08-26T10:44:18.013Z,57.45
2022-08-26T10:45:18.052Z,54.26
2022-08-26T10:46:18.046Z,57.45
2022-08-26T10:47:17.980Z,58.61
2022-08-26T10:48:17.998Z,54.88
2022-08-26T10:49:17.967Z,56.10
2022-08-26T10:50:18.931Z,58.59
2022-08-26T10:51:17.949Z,58.20
2022-08-26T10:52:17.936Z,57.45
2022-08-26T10:53:17.918Z,56.49
2022-08-26T10:54:17.907Z,53.98
2022-08-26T10:55:17.935Z,55.57
2022-08-26T10:56:19.215Z,52.79
2022-08-26T10:57:17.889Z,52.96
2022-08-26T10:58:26.509Z,53.63
2022-08-26T10:59:18.860Z,53.66
2022-08-26T11:00:17.854Z,55.22
2022-08-26T11:01:17.868Z,54.13
2022-08-26T11:02:24.191Z,55.22
2022-08-26T11:03:22.457Z,53.33
2022-08-26T11:04:17.894Z,51.47
2022-08-26T11:05:17.792Z,50.98
2022-08-26T11:06:17.784Z,53.69
2022-08-26T11:07:17.780Z,53.44
2022-08-26T11:08:17.770Z,49.19
2022-08-26T11:09:17.752Z,51.72
2022-08-26T11:10:18.742Z,51.67
2022-08-26T11:11:17.772Z,51.62
2022-08-26T11:12:17.718Z,50.40
2022-08-26T11:13:17.725Z,51.50
2022-08-26T11:14:17.693Z,52.59
2022-08-26T11:15:18.688Z,49.61
2022-08-26T11:16:18.698Z,49.76
2022-08-26T11:17:17.681Z,50.88
2022-08-26T11:18:17.666Z,50.58
2022-08-26T11:19:17.638Z,51.45
2022-08-26T11:20:18.630Z,50.98
2022-08-26T11:21:17.625Z,51.77
2022-08-26T11:22:17.610Z,51.72
2022-08-26T11:23:17.620Z,53.08
2022-08-26T11:24:17.697Z,47.87
2022-08-26T11:25:18.253Z,48.52
2022-08-26T11:26:35.962Z,47.87
2022-08-26T11:27:18.556Z,50.13
2022-08-26T11:28:17.548Z,49.56
2022-08-26T11:29:17.538Z,48.54
2022-08-26T11:30:18.545Z,50.18
2022-08-26T11:31:17.610Z,48.60
2022-08-26T11:32:17.504Z,48.38
2022-08-26T11:33:17.494Z,47.49
2022-08-26T11:34:17.497Z,46.64
2022-08-26T11:35:17.622Z,48.47
2022-08-26T11:36:17.460Z,48.79
2022-08-26T11:37:17.511Z,49.86
2022-08-26T11:38:17.449Z,47.87
2022-08-26T11:39:17.425Z,46.70
2022-08-26T11:40:17.469Z,47.57
2022-08-26T11:41:17.409Z,48.74
2022-08-26T11:42:20.165Z,46.53
2022-08-26T11:43:17.382Z,48.50
2022-08-26T11:44:17.404Z,47.98
2022-08-26T11:45:17.367Z,45.72
2022-08-26T11:46:17.396Z,49.27
2022-08-26T11:47:17.343Z,47.75
2022-08-26T11:48:17.329Z,45.85
2022-08-26T11:49:17.326Z,48.70
2022-08-26T11:50:17.361Z,48.92
2022-08-26T11:51:17.307Z,49.74
2022-08-26T11:52:17.351Z,51.57
2022-08-26T11:53:17.283Z,53.13
2022-08-26T11:54:17.267Z,51.52
2022-08-26T11:55:19.144Z,50.46
2022-08-26T11:56:17.251Z,50.26
2022-08-26T11:57:17.266Z,51.72
2022-08-26T11:58:17.224Z,49.71
2022-08-26T11:59:17.220Z,50.41
2022-08-26T12:00:22.205Z,50.01
2022-08-26T12:01:18.213Z,51.72
2022-08-26T12:02:17.849Z,48.77
2022-08-26T12:03:17.228Z,49.61
2022-08-26T12:04:17.285Z,51.79
2022-08-26T12:05:17.154Z,49.81
2022-08-26T12:06:17.267Z,51.79
2022-08-26T12:07:17.148Z,49.79
2022-08-26T12:08:18.118Z,51.18
2022-08-26T12:09:17.111Z,51.54
2022-08-26T12:10:17.111Z,51.18
2022-08-26T12:11:17.085Z,51.18
2022-08-26T12:12:17.077Z,52.64
2022-08-26T12:13:17.172Z,51.65
2022-08-26T12:14:17.054Z,52.61
2022-08-26T12:15:17.045Z,51.62
2022-08-26T12:16:17.091Z,52.22
2022-08-26T12:17:17.027Z,49.54
2022-08-26T12:18:17.011Z,51.72
2022-08-26T12:19:17.018Z,50.46
2022-08-26T12:20:16.996Z,52.22
2022-08-26T12:21:16.983Z,49.64
2022-08-26T12:22:16.995Z,51.54
2022-08-26T12:23:16.962Z,50.76
2022-08-26T12:24:16.953Z,50.95
2022-08-26T12:25:17.112Z,51.03
2022-08-26T12:26:16.930Z,52.29
2022-08-26T12:27:16.916Z,50.34
2022-08-26T12:28:17.548Z,50.46
2022-08-26T12:29:26.595Z,50.85
2022-08-26T12:30:19.158Z,50.46
2022-08-26T12:31:17.542Z,51.18
2022-08-26T12:32:16.885Z,51.28
2022-08-26T12:33:22.979Z,51.30
2022-08-26T12:34:18.552Z,50.90
2022-08-26T12:35:16.829Z,51.40
2022-08-26T12:36:16.818Z,50.05
2022-08-26T12:37:16.811Z,51.75
2022-08-26T12:38:16.814Z,52.34
2022-08-26T12:39:16.786Z,51.84
2022-08-26T12:40:16.841Z,51.25
2022-08-26T12:41:16.768Z,51.45
2022-08-26T12:42:16.757Z,51.54
2022-08-26T12:43:16.745Z,51.52
2022-08-26T12:44:16.731Z,50.63
2022-08-26T12:45:16.734Z,52.59
2022-08-26T12:46:16.758Z,52.66
2022-08-26T12:47:16.705Z,50.95
2022-08-26T12:48:17.685Z,51.72
2022-08-26T12:49:16.680Z,50.60
2022-08-26T12:50:16.818Z,48.53
2022-08-26T12:51:16.662Z,47.75
2022-08-26T12:52:16.679Z,51.00
2022-08-26T12:53:16.647Z,48.01